sensor_id;sensor_type;location;lat;lon;timestamp;temperature;humidity
5689;DHT22;2869;50.432;8.680;2023-07-22T00:02:15;14.90;99.90
5689;DHT22;2869;50.432;8.680;2023-07-22T00:04:42;14.90;99.90
5689;DHT22;2869;50.432;8.680;2023-07-22T00:07:08;14.80;99.90
5689;DHT22;2869;50.432;8.680;2023-07-22T00:09:35;14.80;99.90
5689;DHT22;2869;50.432;8.680;2023-07-22T00:12:04;14.90;99.90
5689;DHT22;2869;50.432;8.680;2023-07-22T00:14:31;14.90;99.90
5689;DHT22;2869;50.432;8.680;2023-07-22T00:16:58;14.80;99.90
5689;DHT22;2869;50.432;8.680;2023-07-22T00:19:26;14.80;99.90
5689;DHT22;2869;50.432;8.680;2023-07-22T00:21:52;14.80;99.90
5689;DHT22;2869;50.432;8.680;2023-07-22T00:24:19;14.80;99.90
5689;DHT22;2869;50.432;8.680;2023-07-22T00:26:47;14.80;99.90
5689;DHT22;2869;50.432;8.680;2023-07-22T00:29:15;14.70;99.90
5689;DHT22;2869;50.432;8.680;2023-07-22T00:31:42;14.70;99.90
5689;DHT22;2869;50.432;8.680;2023-07-22T00:34:08;14.70;99.90
5689;DHT22;2869;50.432;8.680;2023-07-22T00:36:37;14.50;99.90
5689;DHT22;2869;50.432;8.680;2023-07-22T00:39:04;14.30;99.90
5689;DHT22;2869;50.432;8.680;2023-07-22T00:41:31;14.00;99.90
5689;DHT22;2869;50.432;8.680;2023-07-22T00:43:57;13.90;99.90
5689;DHT22;2869;50.432;8.680;2023-07-22T00:46:24;13.70;99.90
5689;DHT22;2869;50.432;8.680;2023-07-22T00:48:51;13.60;99.90
5689;DHT22;2869;50.432;8.680;2023-07-22T00:51:17;13.50;99.90
5689;DHT22;2869;50.432;8.680;2023-07-22T00:53:46;13.40;99.90
5689;DHT22;2869;50.432;8.680;2023-07-22T00:56:12;13.30;99.90
5689;DHT22;2869;50.432;8.680;2023-07-22T00:58:39;13.20;99.90
5689;DHT22;2869;50.432;8.680;2023-07-22T01:01:06;13.10;99.90
5689;DHT22;2869;50.432;8.680;2023-07-22T01:03:33;13.10;99.90
5689;DHT22;2869;50.432;8.680;2023-07-22T01:05:59;13.00;99.90
5689;DHT22;2869;50.432;8.680;2023-07-22T01:08:26;12.90;99.90
5689;DHT22;2869;50.432;8.680;2023-07-22T01:10:54;12.90;99.90
5689;DHT22;2869;50.432;8.680;2023-07-22T01:13:21;12.90;99.90
5689;DHT22;2869;50.432;8.680;2023-07-22T01:15:47;12.80;99.90
5689;DHT22;2869;50.432;8.680;2023-07-22T01:18:15;12.80;99.90
5689;DHT22;2869;50.432;8.680;2023-07-22T01:20:42;12.70;99.90
5689;DHT22;2869;50.432;8.680;2023-07-22T01:23:10;12.60;99.90
5689;DHT22;2869;50.432;8.680;2023-07-22T01:25:37;12.60;99.90
5689;DHT22;2869;50.432;8.680;2023-07-22T01:28:05;12.60;99.90
5689;DHT22;2869;50.432;8.680;2023-07-22T01:30:35;12.50;99.90
5689;DHT22;2869;50.432;8.680;2023-07-22T01:33:01;12.40;99.90
5689;DHT22;2869;50.432;8.680;2023-07-22T01:35:28;12.40;99.90
5689;DHT22;2869;50.432;8.680;2023-07-22T01:37:55;12.40;99.90
5689;DHT22;2869;50.432;8.680;2023-07-22T01:40:24;12.40;99.90
5689;DHT22;2869;50.432;8.680;2023-07-22T01:42:51;12.40;99.90
5689;DHT22;2869;50.432;8.680;2023-07-22T01:45:18;12.30;99.90
5689;DHT22;2869;50.432;8.680;2023-07-22T01:47:45;12.30;99.90
5689;DHT22;2869;50.432;8.680;2023-07-22T01:50:11;12.30;99.90
5689;DHT22;2869;50.432;8.680;2023-07-22T01:52:38;12.30;99.90
5689;DHT22;2869;50.432;8.680;2023-07-22T01:55:06;12.20;99.90
5689;DHT22;2869;50.432;8.680;2023-07-22T01:57:37;12.10;99.90
5689;DHT22;2869;50.432;8.680;2023-07-22T02:00:05;12.10;99.90
5689;DHT22;2869;50.432;8.680;2023-07-22T02:02:33;12.00;99.90
5689;DHT22;2869;50.432;8.680;2023-07-22T02:05:00;12.00;99.90
5689;DHT22;2869;50.432;8.680;2023-07-22T02:07:26;12.00;99.90
5689;DHT22;2869;50.432;8.680;2023-07-22T02:09:54;11.90;99.90
5689;DHT22;2869;50.432;8.680;2023-07-22T02:12:21;11.90;99.90
5689;DHT22;2869;50.432;8.680;2023-07-22T02:14:49;11.90;99.90
5689;DHT22;2869;50.432;8.680;2023-07-22T02:17:16;11.90;99.90
5689;DHT22;2869;50.432;8.680;2023-07-22T02:19:42;11.80;99.90
5689;DHT22;2869;50.432;8.680;2023-07-22T02:22:10;11.80;99.90
5689;DHT22;2869;50.432;8.680;2023-07-22T02:24:36;11.80;99.90
5689;DHT22;2869;50.432;8.680;2023-07-22T02:27:03;11.70;99.90
5689;DHT22;2869;50.432;8.680;2023-07-22T02:29:31;11.70;99.90
5689;DHT22;2869;50.432;8.680;2023-07-22T02:31:59;11.60;99.90
5689;DHT22;2869;50.432;8.680;2023-07-22T02:34:26;11.60;99.90
5689;DHT22;2869;50.432;8.680;2023-07-22T02:36:53;11.70;99.90
5689;DHT22;2869;50.432;8.680;2023-07-22T02:39:20;11.70;99.90
5689;DHT22;2869;50.432;8.680;2023-07-22T02:41:47;11.70;99.90
5689;DHT22;2869;50.432;8.680;2023-07-22T02:44:13;11.70;99.90
5689;DHT22;2869;50.432;8.680;2023-07-22T02:46:40;11.70;99.90
5689;DHT22;2869;50.432;8.680;2023-07-22T02:49:08;11.60;99.90
5689;DHT22;2869;50.432;8.680;2023-07-22T02:51:35;11.60;99.90
5689;DHT22;2869;50.432;8.680;2023-07-22T02:54:02;11.50;99.90
5689;DHT22;2869;50.432;8.680;2023-07-22T02:56:29;11.50;99.90
5689;DHT22;2869;50.432;8.680;2023-07-22T02:58:55;11.50;99.90
5689;DHT22;2869;50.432;8.680;2023-07-22T03:01:23;11.40;99.90
5689;DHT22;2869;50.432;8.680;2023-07-22T03:03:50;11.40;99.90
5689;DHT22;2869;50.432;8.680;2023-07-22T03:06:18;11.40;99.90
5689;DHT22;2869;50.432;8.680;2023-07-22T03:08:45;11.40;99.90
5689;DHT22;2869;50.432;8.680;2023-07-22T03:11:12;11.40;99.90
5689;DHT22;2869;50.432;8.680;2023-07-22T03:13:38;11.40;99.90
5689;DHT22;2869;50.432;8.680;2023-07-22T03:16:05;11.40;99.90
5689;DHT22;2869;50.432;8.680;2023-07-22T03:18:31;11.40;99.90
5689;DHT22;2869;50.432;8.680;2023-07-22T03:20:58;11.40;99.90
5689;DHT22;2869;50.432;8.680;2023-07-22T03:23:26;11.40;99.90
5689;DHT22;2869;50.432;8.680;2023-07-22T03:25:53;11.30;99.90
5689;DHT22;2869;50.432;8.680;2023-07-22T03:28:19;11.30;99.90
5689;DHT22;2869;50.432;8.680;2023-07-22T03:30:46;11.30;99.90
5689;DHT22;2869;50.432;8.680;2023-07-22T03:33:13;11.30;99.90
5689;DHT22;2869;50.432;8.680;2023-07-22T03:35:40;11.30;99.90
5689;DHT22;2869;50.432;8.680;2023-07-22T03:38:06;11.30;99.90
5689;DHT22;2869;50.432;8.680;2023-07-22T03:40:34;11.30;99.90
5689;DHT22;2869;50.432;8.680;2023-07-22T03:43:01;11.30;99.90
5689;DHT22;2869;50.432;8.680;2023-07-22T03:45:28;11.30;99.90
5689;DHT22;2869;50.432;8.680;2023-07-22T03:47:57;11.20;99.90
5689;DHT22;2869;50.432;8.680;2023-07-22T03:50:24;11.20;99.90
5689;DHT22;2869;50.432;8.680;2023-07-22T03:52:51;11.10;99.90
5689;DHT22;2869;50.432;8.680;2023-07-22T03:55:17;11.10;99.90
5689;DHT22;2869;50.432;8.680;2023-07-22T03:57:46;11.10;99.90
5689;DHT22;2869;50.432;8.680;2023-07-22T04:00:13;11.10;99.90
5689;DHT22;2869;50.432;8.680;2023-07-22T04:02:40;11.10;99.90
5689;DHT22;2869;50.432;8.680;2023-07-22T04:05:07;11.10;99.90
5689;DHT22;2869;50.432;8.680;2023-07-22T04:07:34;11.20;99.90
5689;DHT22;2869;50.432;8.680;2023-07-22T04:10:00;11.20;99.90
5689;DHT22;2869;50.432;8.680;2023-07-22T04:12:28;11.20;99.90
5689;DHT22;2869;50.432;8.680;2023-07-22T04:14:56;11.30;99.90
5689;DHT22;2869;50.432;8.680;2023-07-22T04:17:23;11.30;99.90
5689;DHT22;2869;50.432;8.680;2023-07-22T04:19:51;11.40;99.90
5689;DHT22;2869;50.432;8.680;2023-07-22T04:22:18;11.40;99.90
5689;DHT22;2869;50.432;8.680;2023-07-22T04:24:45;11.50;99.90
5689;DHT22;2869;50.432;8.680;2023-07-22T04:27:13;11.60;99.90
5689;DHT22;2869;50.432;8.680;2023-07-22T04:29:40;11.60;99.90
5689;DHT22;2869;50.432;8.680;2023-07-22T04:32:08;11.70;99.90
5689;DHT22;2869;50.432;8.680;2023-07-22T04:34:35;11.70;99.90
5689;DHT22;2869;50.432;8.680;2023-07-22T04:37:02;11.80;99.90
5689;DHT22;2869;50.432;8.680;2023-07-22T04:39:29;11.90;99.90
5689;DHT22;2869;50.432;8.680;2023-07-22T04:41:56;11.90;99.90
5689;DHT22;2869;50.432;8.680;2023-07-22T04:44:22;12.00;99.90
5689;DHT22;2869;50.432;8.680;2023-07-22T04:46:49;12.00;99.90
5689;DHT22;2869;50.432;8.680;2023-07-22T04:49:17;12.00;99.90
5689;DHT22;2869;50.432;8.680;2023-07-22T04:51:44;12.10;99.90
5689;DHT22;2869;50.432;8.680;2023-07-22T04:54:11;12.10;99.90
5689;DHT22;2869;50.432;8.680;2023-07-22T04:56:38;12.20;99.90
5689;DHT22;2869;50.432;8.680;2023-07-22T04:59:05;12.30;99.90
5689;DHT22;2869;50.432;8.680;2023-07-22T05:01:31;12.40;99.90
5689;DHT22;2869;50.432;8.680;2023-07-22T05:03:58;12.40;99.90
5689;DHT22;2869;50.432;8.680;2023-07-22T05:06:27;12.40;99.90
5689;DHT22;2869;50.432;8.680;2023-07-22T05:08:54;12.50;99.90
5689;DHT22;2869;50.432;8.680;2023-07-22T05:11:21;12.50;99.90
5689;DHT22;2869;50.432;8.680;2023-07-22T05:13:48;12.40;99.90
5689;DHT22;2869;50.432;8.680;2023-07-22T05:16:15;12.40;99.90
5689;DHT22;2869;50.432;8.680;2023-07-22T05:18:42;12.40;99.90
5689;DHT22;2869;50.432;8.680;2023-07-22T05:21:08;12.50;99.90
5689;DHT22;2869;50.432;8.680;2023-07-22T05:23:36;12.60;99.90
5689;DHT22;2869;50.432;8.680;2023-07-22T05:26:03;12.70;99.90
5689;DHT22;2869;50.432;8.680;2023-07-22T05:28:30;12.80;99.90
5689;DHT22;2869;50.432;8.680;2023-07-22T05:30:56;12.80;99.90
5689;DHT22;2869;50.432;8.680;2023-07-22T05:33:23;12.90;99.90
5689;DHT22;2869;50.432;8.680;2023-07-22T05:35:50;12.90;99.90
5689;DHT22;2869;50.432;8.680;2023-07-22T05:38:16;13.10;99.90
5689;DHT22;2869;50.432;8.680;2023-07-22T05:40:44;13.40;99.90
5689;DHT22;2869;50.432;8.680;2023-07-22T05:43:11;13.60;99.90
5689;DHT22;2869;50.432;8.680;2023-07-22T05:45:37;13.70;99.90
5689;DHT22;2869;50.432;8.680;2023-07-22T05:48:05;14.10;99.90
5689;DHT22;2869;50.432;8.680;2023-07-22T05:50:31;14.50;99.90
5689;DHT22;2869;50.432;8.680;2023-07-22T05:52:58;14.60;99.90
5689;DHT22;2869;50.432;8.680;2023-07-22T05:55:25;14.70;99.90
5689;DHT22;2869;50.432;8.680;2023-07-22T05:57:53;14.80;99.90
5689;DHT22;2869;50.432;8.680;2023-07-22T06:00:20;14.80;99.90
5689;DHT22;2869;50.432;8.680;2023-07-22T06:02:47;14.80;99.90
5689;DHT22;2869;50.432;8.680;2023-07-22T06:05:15;14.80;99.90
5689;DHT22;2869;50.432;8.680;2023-07-22T06:07:41;15.10;99.90
5689;DHT22;2869;50.432;8.680;2023-07-22T06:10:08;15.50;99.90
5689;DHT22;2869;50.432;8.680;2023-07-22T06:12:35;16.00;99.90
5689;DHT22;2869;50.432;8.680;2023-07-22T06:15:04;16.20;99.90
5689;DHT22;2869;50.432;8.680;2023-07-22T06:17:31;16.50;99.90
5689;DHT22;2869;50.432;8.680;2023-07-22T06:19:58;16.70;99.90
5689;DHT22;2869;50.432;8.680;2023-07-22T06:22:24;16.60;99.90
5689;DHT22;2869;50.432;8.680;2023-07-22T06:24:51;16.80;99.90
5689;DHT22;2869;50.432;8.680;2023-07-22T06:27:17;16.70;99.90
5689;DHT22;2869;50.432;8.680;2023-07-22T06:29:44;16.80;99.90
5689;DHT22;2869;50.432;8.680;2023-07-22T06:32:12;17.20;99.90
5689;DHT22;2869;50.432;8.680;2023-07-22T06:34:39;17.30;99.90
5689;DHT22;2869;50.432;8.680;2023-07-22T06:37:05;17.40;99.90
5689;DHT22;2869;50.432;8.680;2023-07-22T06:39:32;17.50;99.90
5689;DHT22;2869;50.432;8.680;2023-07-22T06:41:59;17.70;99.90
5689;DHT22;2869;50.432;8.680;2023-07-22T06:44:25;17.70;99.90
5689;DHT22;2869;50.432;8.680;2023-07-22T06:46:52;17.60;99.90
5689;DHT22;2869;50.432;8.680;2023-07-22T06:49:20;17.50;99.90
5689;DHT22;2869;50.432;8.680;2023-07-22T06:51:46;17.60;99.90
5689;DHT22;2869;50.432;8.680;2023-07-22T06:54:13;17.80;99.90
5689;DHT22;2869;50.432;8.680;2023-07-22T06:56:40;17.80;99.90
5689;DHT22;2869;50.432;8.680;2023-07-22T06:59:06;17.90;99.90
5689;DHT22;2869;50.432;8.680;2023-07-22T07:01:34;18.10;99.90
5689;DHT22;2869;50.432;8.680;2023-07-22T07:04:00;18.10;99.90
5689;DHT22;2869;50.432;8.680;2023-07-22T07:06:29;18.10;99.90
5689;DHT22;2869;50.432;8.680;2023-07-22T07:08:56;18.00;99.90
5689;DHT22;2869;50.432;8.680;2023-07-22T07:11:25;18.10;99.90
5689;DHT22;2869;50.432;8.680;2023-07-22T07:13:52;18.30;99.90
5689;DHT22;2869;50.432;8.680;2023-07-22T07:16:23;18.50;99.90
5689;DHT22;2869;50.432;8.680;2023-07-22T07:18:50;18.50;99.90
5689;DHT22;2869;50.432;8.680;2023-07-22T07:21:17;18.50;99.90
5689;DHT22;2869;50.432;8.680;2023-07-22T07:23:45;18.50;99.90
5689;DHT22;2869;50.432;8.680;2023-07-22T07:26:12;18.70;99.90
5689;DHT22;2869;50.432;8.680;2023-07-22T07:28:38;18.90;99.90
5689;DHT22;2869;50.432;8.680;2023-07-22T07:31:05;19.10;99.90
5689;DHT22;2869;50.432;8.680;2023-07-22T07:33:32;19.30;99.90
5689;DHT22;2869;50.432;8.680;2023-07-22T07:35:59;19.50;99.90
5689;DHT22;2869;50.432;8.680;2023-07-22T07:38:26;19.50;99.90
5689;DHT22;2869;50.432;8.680;2023-07-22T07:40:56;19.60;99.90
5689;DHT22;2869;50.432;8.680;2023-07-22T07:43:23;19.80;99.90
5689;DHT22;2869;50.432;8.680;2023-07-22T07:45:50;20.00;99.90
5689;DHT22;2869;50.432;8.680;2023-07-22T07:48:17;20.10;99.90
5689;DHT22;2869;50.432;8.680;2023-07-22T07:50:43;20.30;99.90
5689;DHT22;2869;50.432;8.680;2023-07-22T07:53:10;20.70;99.90
5689;DHT22;2869;50.432;8.680;2023-07-22T07:55:36;20.90;99.90
5689;DHT22;2869;50.432;8.680;2023-07-22T07:58:04;21.00;99.90
5689;DHT22;2869;50.432;8.680;2023-07-22T08:00:31;21.10;99.90
5689;DHT22;2869;50.432;8.680;2023-07-22T08:02:59;21.30;99.90
5689;DHT22;2869;50.432;8.680;2023-07-22T08:05:25;21.50;99.90
5689;DHT22;2869;50.432;8.680;2023-07-22T08:07:52;21.60;99.90
5689;DHT22;2869;50.432;8.680;2023-07-22T08:10:18;21.70;99.90
5689;DHT22;2869;50.432;8.680;2023-07-22T08:12:45;21.80;99.90
5689;DHT22;2869;50.432;8.680;2023-07-22T08:15:13;22.00;99.90
5689;DHT22;2869;50.432;8.680;2023-07-22T08:17:40;21.90;99.90
5689;DHT22;2869;50.432;8.680;2023-07-22T08:20:07;22.10;99.90
5689;DHT22;2869;50.432;8.680;2023-07-22T08:22:35;22.20;99.90
5689;DHT22;2869;50.432;8.680;2023-07-22T08:25:02;22.20;99.90
5689;DHT22;2869;50.432;8.680;2023-07-22T08:27:29;22.00;99.90
5689;DHT22;2869;50.432;8.680;2023-07-22T08:29:56;22.10;99.90
5689;DHT22;2869;50.432;8.680;2023-07-22T08:32:23;22.10;99.90
5689;DHT22;2869;50.432;8.680;2023-07-22T08:34:50;22.00;99.90
5689;DHT22;2869;50.432;8.680;2023-07-22T08:37:17;21.90;99.90
5689;DHT22;2869;50.432;8.680;2023-07-22T08:39:43;22.00;99.90
5689;DHT22;2869;50.432;8.680;2023-07-22T08:42:11;22.20;99.90
5689;DHT22;2869;50.432;8.680;2023-07-22T08:44:43;22.30;99.90
5689;DHT22;2869;50.432;8.680;2023-07-22T08:47:14;22.40;99.90
5689;DHT22;2869;50.432;8.680;2023-07-22T08:49:46;22.50;99.90
5689;DHT22;2869;50.432;8.680;2023-07-22T08:52:17;22.70;99.90
5689;DHT22;2869;50.432;8.680;2023-07-22T08:54:44;22.80;99.90
5689;DHT22;2869;50.432;8.680;2023-07-22T08:57:11;23.10;99.90
5689;DHT22;2869;50.432;8.680;2023-07-22T08:59:38;23.20;99.90
5689;DHT22;2869;50.432;8.680;2023-07-22T09:02:06;23.10;99.90
5689;DHT22;2869;50.432;8.680;2023-07-22T09:04:36;23.00;99.90
5689;DHT22;2869;50.432;8.680;2023-07-22T09:07:05;23.10;99.90
5689;DHT22;2869;50.432;8.680;2023-07-22T09:09:33;23.30;99.90
5689;DHT22;2869;50.432;8.680;2023-07-22T09:12:01;23.50;99.90
5689;DHT22;2869;50.432;8.680;2023-07-22T09:14:28;23.40;99.90
5689;DHT22;2869;50.432;8.680;2023-07-22T09:16:57;23.10;99.90
5689;DHT22;2869;50.432;8.680;2023-07-22T09:19:23;23.00;99.90
5689;DHT22;2869;50.432;8.680;2023-07-22T09:21:50;23.10;99.90
5689;DHT22;2869;50.432;8.680;2023-07-22T09:24:23;23.20;99.90
5689;DHT22;2869;50.432;8.680;2023-07-22T09:26:50;22.90;99.90
5689;DHT22;2869;50.432;8.680;2023-07-22T09:29:17;22.50;99.90
5689;DHT22;2869;50.432;8.680;2023-07-22T09:31:53;22.30;99.90
5689;DHT22;2869;50.432;8.680;2023-07-22T09:34:20;22.20;99.90
5689;DHT22;2869;50.432;8.680;2023-07-22T09:36:51;22.10;99.90
5689;DHT22;2869;50.432;8.680;2023-07-22T09:39:18;22.00;99.90
5689;DHT22;2869;50.432;8.680;2023-07-22T09:41:46;22.20;99.90
5689;DHT22;2869;50.432;8.680;2023-07-22T09:44:13;22.10;99.90
5689;DHT22;2869;50.432;8.680;2023-07-22T09:46:40;22.10;99.90
5689;DHT22;2869;50.432;8.680;2023-07-22T09:49:08;21.90;99.90
5689;DHT22;2869;50.432;8.680;2023-07-22T09:51:36;21.80;99.90
5689;DHT22;2869;50.432;8.680;2023-07-22T09:54:04;21.80;99.90
5689;DHT22;2869;50.432;8.680;2023-07-22T09:56:31;21.70;99.90
5689;DHT22;2869;50.432;8.680;2023-07-22T09:59:04;21.70;99.90
5689;DHT22;2869;50.432;8.680;2023-07-22T10:01:31;21.70;99.90
5689;DHT22;2869;50.432;8.680;2023-07-22T10:03:59;21.60;99.90
5689;DHT22;2869;50.432;8.680;2023-07-22T10:06:28;21.50;99.90
5689;DHT22;2869;50.432;8.680;2023-07-22T10:08:56;21.70;99.90
5689;DHT22;2869;50.432;8.680;2023-07-22T10:11:24;22.10;99.90
5689;DHT22;2869;50.432;8.680;2023-07-22T10:13:53;22.30;99.90
5689;DHT22;2869;50.432;8.680;2023-07-22T10:16:22;22.50;99.90
5689;DHT22;2869;50.432;8.680;2023-07-22T10:18:48;22.60;99.90
5689;DHT22;2869;50.432;8.680;2023-07-22T10:21:15;22.60;99.90
5689;DHT22;2869;50.432;8.680;2023-07-22T10:23:43;22.50;99.90
5689;DHT22;2869;50.432;8.680;2023-07-22T10:26:11;22.60;99.90
5689;DHT22;2869;50.432;8.680;2023-07-22T10:28:40;22.60;99.90
5689;DHT22;2869;50.432;8.680;2023-07-22T10:31:08;22.60;99.90
5689;DHT22;2869;50.432;8.680;2023-07-22T10:33:36;22.60;99.90
5689;DHT22;2869;50.432;8.680;2023-07-22T10:36:05;22.40;99.90
5689;DHT22;2869;50.432;8.680;2023-07-22T10:38:32;22.20;99.90
5689;DHT22;2869;50.432;8.680;2023-07-22T10:40:59;22.10;99.90
5689;DHT22;2869;50.432;8.680;2023-07-22T10:43:27;22.30;99.90
5689;DHT22;2869;50.432;8.680;2023-07-22T10:45:55;22.20;99.90
5689;DHT22;2869;50.432;8.680;2023-07-22T10:48:24;22.40;99.90
5689;DHT22;2869;50.432;8.680;2023-07-22T10:50:54;22.40;99.90
5689;DHT22;2869;50.432;8.680;2023-07-22T10:53:28;22.30;99.90
5689;DHT22;2869;50.432;8.680;2023-07-22T10:56:06;22.20;99.90
5689;DHT22;2869;50.432;8.680;2023-07-22T10:58:54;21.90;99.90
5689;DHT22;2869;50.432;8.680;2023-07-22T11:01:22;21.80;99.90
5689;DHT22;2869;50.432;8.680;2023-07-22T11:04:11;21.70;99.90
5689;DHT22;2869;50.432;8.680;2023-07-22T11:06:52;21.70;99.90
5689;DHT22;2869;50.432;8.680;2023-07-22T11:09:39;21.70;99.90
5689;DHT22;2869;50.432;8.680;2023-07-22T11:12:09;21.60;99.90
5689;DHT22;2869;50.432;8.680;2023-07-22T11:14:39;21.70;99.90
5689;DHT22;2869;50.432;8.680;2023-07-22T11:17:07;21.90;99.90
5689;DHT22;2869;50.432;8.680;2023-07-22T11:19:34;22.00;99.90
5689;DHT22;2869;50.432;8.680;2023-07-22T11:22:03;22.20;99.90
5689;DHT22;2869;50.432;8.680;2023-07-22T11:24:33;22.40;99.90
5689;DHT22;2869;50.432;8.680;2023-07-22T11:27:03;22.40;99.90
5689;DHT22;2869;50.432;8.680;2023-07-22T11:29:30;22.30;99.90
5689;DHT22;2869;50.432;8.680;2023-07-22T11:31:57;22.30;99.90
5689;DHT22;2869;50.432;8.680;2023-07-22T11:34:24;22.50;99.90
5689;DHT22;2869;50.432;8.680;2023-07-22T11:36:51;22.60;99.90
5689;DHT22;2869;50.432;8.680;2023-07-22T11:39:21;22.70;99.90
5689;DHT22;2869;50.432;8.680;2023-07-22T11:41:48;22.80;99.90
5689;DHT22;2869;50.432;8.680;2023-07-22T11:44:17;22.90;99.90
5689;DHT22;2869;50.432;8.680;2023-07-22T11:46:49;22.80;99.90
5689;DHT22;2869;50.432;8.680;2023-07-22T11:49:27;22.80;99.90
5689;DHT22;2869;50.432;8.680;2023-07-22T11:51:55;22.80;99.90
5689;DHT22;2869;50.432;8.680;2023-07-22T11:54:24;22.90;99.90
5689;DHT22;2869;50.432;8.680;2023-07-22T11:56:50;23.10;99.90
5689;DHT22;2869;50.432;8.680;2023-07-22T11:59:17;23.30;99.90
5689;DHT22;2869;50.432;8.680;2023-07-22T12:01:59;23.50;99.90
5689;DHT22;2869;50.432;8.680;2023-07-22T12:04:26;23.50;99.90
5689;DHT22;2869;50.432;8.680;2023-07-22T12:06:53;23.50;99.90
5689;DHT22;2869;50.432;8.680;2023-07-22T12:09:19;23.80;99.90
5689;DHT22;2869;50.432;8.680;2023-07-22T12:11:47;24.20;99.90
5689;DHT22;2869;50.432;8.680;2023-07-22T12:14:21;24.40;99.90
5689;DHT22;2869;50.432;8.680;2023-07-22T12:16:47;24.50;99.90
5689;DHT22;2869;50.432;8.680;2023-07-22T12:19:19;24.50;99.90
5689;DHT22;2869;50.432;8.680;2023-07-22T12:21:45;24.50;99.90
5689;DHT22;2869;50.432;8.680;2023-07-22T12:24:14;24.40;99.90
5689;DHT22;2869;50.432;8.680;2023-07-22T12:26:41;24.30;99.90
5689;DHT22;2869;50.432;8.680;2023-07-22T12:29:09;24.00;99.90
5689;DHT22;2869;50.432;8.680;2023-07-22T12:31:36;23.80;99.90
5689;DHT22;2869;50.432;8.680;2023-07-22T12:34:03;23.70;99.90
5689;DHT22;2869;50.432;8.680;2023-07-22T12:36:29;23.60;99.90
5689;DHT22;2869;50.432;8.680;2023-07-22T12:38:56;23.50;99.90
5689;DHT22;2869;50.432;8.680;2023-07-22T12:41:23;23.40;99.90
5689;DHT22;2869;50.432;8.680;2023-07-22T12:43:49;23.20;99.90
5689;DHT22;2869;50.432;8.680;2023-07-22T12:46:18;23.30;99.90
5689;DHT22;2869;50.432;8.680;2023-07-22T12:48:45;23.40;99.90
5689;DHT22;2869;50.432;8.680;2023-07-22T12:51:11;23.60;99.90
5689;DHT22;2869;50.432;8.680;2023-07-22T12:53:39;23.90;99.90
5689;DHT22;2869;50.432;8.680;2023-07-22T12:56:05;24.00;99.90
5689;DHT22;2869;50.432;8.680;2023-07-22T12:58:32;24.00;99.90
5689;DHT22;2869;50.432;8.680;2023-07-22T13:00:59;24.00;99.90
5689;DHT22;2869;50.432;8.680;2023-07-22T13:03:27;24.00;99.90
5689;DHT22;2869;50.432;8.680;2023-07-22T13:05:53;23.90;99.90
5689;DHT22;2869;50.432;8.680;2023-07-22T13:08:20;24.00;99.90
5689;DHT22;2869;50.432;8.680;2023-07-22T13:10:46;24.00;99.90
5689;DHT22;2869;50.432;8.680;2023-07-22T13:13:13;24.00;99.90
5689;DHT22;2869;50.432;8.680;2023-07-22T13:15:40;23.90;99.90
5689;DHT22;2869;50.432;8.680;2023-07-22T13:18:06;23.90;99.90
5689;DHT22;2869;50.432;8.680;2023-07-22T13:20:35;24.00;99.90
5689;DHT22;2869;50.432;8.680;2023-07-22T13:23:01;23.90;99.90
5689;DHT22;2869;50.432;8.680;2023-07-22T13:25:28;23.90;99.90
5689;DHT22;2869;50.432;8.680;2023-07-22T13:27:56;23.90;99.90
5689;DHT22;2869;50.432;8.680;2023-07-22T13:30:22;24.10;99.90
5689;DHT22;2869;50.432;8.680;2023-07-22T13:32:49;24.60;99.90
5689;DHT22;2869;50.432;8.680;2023-07-22T13:35:16;25.20;99.90
5689;DHT22;2869;50.432;8.680;2023-07-22T13:37:43;25.40;99.90
5689;DHT22;2869;50.432;8.680;2023-07-22T13:40:10;25.50;99.90
5689;DHT22;2869;50.432;8.680;2023-07-22T13:42:38;25.00;99.90
5689;DHT22;2869;50.432;8.680;2023-07-22T13:45:06;24.90;99.90
5689;DHT22;2869;50.432;8.680;2023-07-22T13:47:32;24.60;99.90
5689;DHT22;2869;50.432;8.680;2023-07-22T13:49:59;24.50;99.90
5689;DHT22;2869;50.432;8.680;2023-07-22T13:52:26;24.60;99.90
5689;DHT22;2869;50.432;8.680;2023-07-22T13:54:54;24.70;99.90
5689;DHT22;2869;50.432;8.680;2023-07-22T13:57:20;24.80;99.90
5689;DHT22;2869;50.432;8.680;2023-07-22T13:59:47;24.70;99.90
5689;DHT22;2869;50.432;8.680;2023-07-22T14:02:14;24.70;99.90
5689;DHT22;2869;50.432;8.680;2023-07-22T14:04:40;24.90;99.90
5689;DHT22;2869;50.432;8.680;2023-07-22T14:07:07;25.10;99.90
5689;DHT22;2869;50.432;8.680;2023-07-22T14:09:33;25.00;99.90
5689;DHT22;2869;50.432;8.680;2023-07-22T14:12:02;24.80;99.90
5689;DHT22;2869;50.432;8.680;2023-07-22T14:14:28;24.40;99.90
5689;DHT22;2869;50.432;8.680;2023-07-22T14:16:55;24.10;99.90
5689;DHT22;2869;50.432;8.680;2023-07-22T14:19:23;24.20;99.90
5689;DHT22;2869;50.432;8.680;2023-07-22T14:21:49;24.80;99.90
5689;DHT22;2869;50.432;8.680;2023-07-22T14:24:16;25.60;99.90
5689;DHT22;2869;50.432;8.680;2023-07-22T14:26:42;26.10;99.90
5689;DHT22;2869;50.432;8.680;2023-07-22T14:29:10;26.30;99.90
5689;DHT22;2869;50.432;8.680;2023-07-22T14:31:37;26.40;99.90
5689;DHT22;2869;50.432;8.680;2023-07-22T14:34:04;26.40;99.90
5689;DHT22;2869;50.432;8.680;2023-07-22T14:36:30;26.20;99.90
5689;DHT22;2869;50.432;8.680;2023-07-22T14:38:57;25.90;99.90
5689;DHT22;2869;50.432;8.680;2023-07-22T14:41:24;25.70;99.90
5689;DHT22;2869;50.432;8.680;2023-07-22T14:43:51;25.60;99.90
5689;DHT22;2869;50.432;8.680;2023-07-22T14:46:19;25.70;99.90
5689;DHT22;2869;50.432;8.680;2023-07-22T14:48:45;26.00;99.90
5689;DHT22;2869;50.432;8.680;2023-07-22T14:51:12;26.40;99.90
5689;DHT22;2869;50.432;8.680;2023-07-22T14:53:39;26.30;99.90
5689;DHT22;2869;50.432;8.680;2023-07-22T14:56:05;26.10;99.90
5689;DHT22;2869;50.432;8.680;2023-07-22T14:58:33;25.70;99.90
5689;DHT22;2869;50.432;8.680;2023-07-22T15:00:59;25.60;99.90
5689;DHT22;2869;50.432;8.680;2023-07-22T15:03:27;25.70;99.90
5689;DHT22;2869;50.432;8.680;2023-07-22T15:05:54;25.60;99.90
5689;DHT22;2869;50.432;8.680;2023-07-22T15:08:21;25.40;99.90
5689;DHT22;2869;50.432;8.680;2023-07-22T15:10:47;25.30;99.90
5689;DHT22;2869;50.432;8.680;2023-07-22T15:13:14;25.30;99.90
5689;DHT22;2869;50.432;8.680;2023-07-22T15:15:40;25.10;99.90
5689;DHT22;2869;50.432;8.680;2023-07-22T15:18:07;25.00;99.90
5689;DHT22;2869;50.432;8.680;2023-07-22T15:20:36;25.00;99.90
5689;DHT22;2869;50.432;8.680;2023-07-22T15:23:02;25.10;99.90
5689;DHT22;2869;50.432;8.680;2023-07-22T15:25:29;25.20;99.90
5689;DHT22;2869;50.432;8.680;2023-07-22T15:27:56;25.10;99.90
5689;DHT22;2869;50.432;8.680;2023-07-22T15:30:22;25.20;99.90
5689;DHT22;2869;50.432;8.680;2023-07-22T15:32:49;25.30;99.90
5689;DHT22;2869;50.432;8.680;2023-07-22T15:35:16;25.50;99.90
5689;DHT22;2869;50.432;8.680;2023-07-22T15:37:44;25.70;99.90
5689;DHT22;2869;50.432;8.680;2023-07-22T15:40:11;25.90;99.90
5689;DHT22;2869;50.432;8.680;2023-07-22T15:42:38;25.80;99.30
5689;DHT22;2869;50.432;8.680;2023-07-22T15:45:05;25.50;99.50
5689;DHT22;2869;50.432;8.680;2023-07-22T15:47:33;25.50;99.90
5689;DHT22;2869;50.432;8.680;2023-07-22T15:50:00;25.60;99.60
5689;DHT22;2869;50.432;8.680;2023-07-22T15:52:27;25.70;99.80
5689;DHT22;2869;50.432;8.680;2023-07-22T15:54:55;25.70;99.10
5689;DHT22;2869;50.432;8.680;2023-07-22T15:57:21;25.60;98.70
5689;DHT22;2869;50.432;8.680;2023-07-22T15:59:48;25.70;99.00
5689;DHT22;2869;50.432;8.680;2023-07-22T16:02:14;25.50;99.60
5689;DHT22;2869;50.432;8.680;2023-07-22T16:04:41;25.30;99.50